Time;durP1;ratioP1;P1;durP2;ratioP2;P2;SDS_P1;SDS_P2;PMS_P1;PMS_P2;Temp;Humidity;BMP_temperature;BMP_pressure;BME280_temperature;BME280_humidity;BME280_pressure;Samples;Min_cycle;Max_cycle;Signal;HPM_P1;HPM_P2
2021/12/18 00:01:26;;;;;;;0.60;0.50;;;;;;;0.19;77.95;99300.47;102077;1312;61021;-22
2021/12/18 00:03:54;;;;;;;0.80;0.40;;;;;;;0.08;78.91;99303.92;101992;1319;74751;-22
2021/12/18 00:06:27;;;;;;;1.70;0.60;;;;;;;-0.15;79.87;99306.39;102271;1313;76239;-22
2021/12/18 00:08:56;;;;;;;0.90;0.50;;;;;;;-0.18;80.52;99316.05;102303;1316;74506;-22
2021/12/18 00:11:40;;;;;;;1.10;0.90;;;;;;;0.08;79.09;99318.75;102224;1313;61137;-23
2021/12/18 00:14:09;;;;;;;5.50;2.60;;;;;;;0.07;78.67;99319.31;102319;1312;62191;-22
2021/12/18 00:16:37;;;;;;;0.80;0.50;;;;;;;-0.08;78.78;99324.10;102279;1317;75769;-22
2021/12/18 00:19:06;;;;;;;1.70;0.70;;;;;;;-0.19;78.71;99324.95;102296;1314;76050;-23
2021/12/18 00:21:36;;;;;;;1.90;1.10;;;;;;;-0.28;78.62;99328.83;102251;1319;74506;-23
2021/12/18 00:24:06;;;;;;;2.80;0.70;;;;;;;-0.14;77.88;99335.20;102131;1312;61154;-23
2021/12/18 00:26:34;;;;;;;2.30;1.00;;;;;;;0.11;77.05;99335.38;101828;1316;61246;-26
2021/12/18 00:29:02;;;;;;;2.50;1.00;;;;;;;0.14;76.63;99341.27;102338;1319;74588;-23
2021/12/18 00:31:31;;;;;;;3.10;1.00;;;;;;;0.03;76.82;99340.27;102289;1316;75820;-23
2021/12/18 00:33:59;;;;;;;1.90;0.80;;;;;;;-0.06;77.57;99344.34;102252;1313;74447;-23
2021/12/18 00:36:28;;;;;;;4.10;1.30;;;;;;;-0.12;78.05;99343.16;102297;1320;61192;-23
2021/12/18 00:38:56;;;;;;;1.70;0.80;;;;;;;-0.17;78.48;99346.73;102223;1319;61889;-23
2021/12/18 00:41:47;;;;;;;1.40;0.40;;;;;;;0.03;77.45;99343.32;102138;1316;75662;-23
2021/12/18 00:44:16;;;;;;;0.60;0.40;;;;;;;0.09;78.10;99346.39;102005;1313;74732;-23
2021/12/18 00:46:45;;;;;;;0.70;0.50;;;;;;;0.11;78.07;99347.67;102292;1319;72299;-23
2021/12/18 00:49:17;;;;;;;1.10;0.60;;;;;;;-0.15;79.18;99348.55;102292;1313;61217;-23
2021/12/18 00:51:45;;;;;;;2.30;0.80;;;;;;;-0.32;79.99;99352.65;102076;1315;62154;-23
2021/12/18 00:54:14;;;;;;;1.30;0.60;;;;;;;-0.10;79.53;99354.86;102296;1318;75515;-23
2021/12/18 00:56:42;;;;;;;1.20;0.70;;;;;;;0.07;78.27;99354.30;102266;1316;74490;-23
2021/12/18 00:59:11;;;;;;;1.50;0.80;;;;;;;-0.07;78.85;99355.98;102244;1313;75159;-23
2021/12/18 01:01:39;;;;;;;1.10;0.70;;;;;;;-0.13;78.90;99356.50;102159;1312;61389;-23
2021/12/18 01:04:07;;;;;;;0.80;0.50;;;;;;;-0.18;79.13;99359.39;102141;1316;61140;-22
2021/12/18 01:06:36;;;;;;;2.60;0.80;;;;;;;-0.22;80.19;99365.30;102268;1319;75648;-23
2021/12/18 01:09:04;;;;;;;0.90;0.70;;;;;;;0.16;78.63;99366.98;101985;1313;209080;-23
2021/12/18 01:11:36;;;;;;;0.90;0.60;;;;;;;0.25;78.16;99371.30;102151;1316;74454;-23
2021/12/18 01:14:23;;;;;;;0.50;0.50;;;;;;;0.01;79.53;99373.83;102050;1313;61153;-23
2021/12/18 01:25:15;;;;;;;1.80;1.00;;;;;;;-0.05;80.39;99375.52;102287;1312;74549;-23
2021/12/18 01:27:43;;;;;;;0.80;0.70;;;;;;;-0.06;80.36;99375.73;102139;1316;61227;-23
2021/12/18 01:30:12;;;;;;;1.00;0.40;;;;;;;-0.27;80.69;99375.55;102167;1313;61116;-23
2021/12/18 01:32:41;;;;;;;1.70;0.60;;;;;;;-0.48;81.48;99384.55;102251;1315;74764;-23
2021/12/18 01:35:09;;;;;;;0.60;0.50;;;;;;;-0.39;81.31;99394.33;102357;1317;75930;-23
2021/12/18 01:37:40;;;;;;;2.40;0.60;;;;;;;0.03;79.89;99398.33;102271;1317;74551;-23
2021/12/18 01:40:09;;;;;;;3.60;0.80;;;;;;;-0.06;79.97;99402.55;102317;1313;61244;-23
2021/12/18 01:53:38;;;;;;;1.40;0.80;;;;;;;-0.02;78.20;99419.30;102226;1313;61333;-23
2021/12/18 01:56:07;;;;;;;1.10;0.80;;;;;;;-0.04;78.48;99419.72;102202;1316;62350;-23
2021/12/18 01:58:36;;;;;;;1.80;0.70;;;;;;;-0.17;79.13;99422.31;102127;1313;75649;-23
2021/12/18 02:01:04;;;;;;;1.60;0.60;;;;;;;-0.32;80.31;99420.23;102197;1317;75979;-23
2021/12/18 02:03:33;;;;;;;0.70;0.60;;;;;;;-0.06;79.65;99425.89;102136;1318;74541;-23
2021/12/18 02:06:02;;;;;;;1.20;0.90;;;;;;;-0.05;79.78;99427.61;102173;1316;61281;-23
2021/12/18 02:08:33;;;;;;;1.80;0.80;;;;;;;-0.19;81.33;99429.23;102144;1317;61794;-23
2021/12/18 02:11:13;;;;;;;1.20;0.90;;;;;;;-0.48;82.49;99432.13;102173;1318;75746;-23
2021/12/18 02:19:46;;;;;;;2.10;0.90;;;;;;;-0.34;81.12;99420.64;102237;1319;61786;-23
2021/12/18 02:22:15;;;;;;;1.60;0.80;;;;;;;-0.39;80.99;99427.93;102033;1315;61804;-23
2021/12/18 02:24:43;;;;;;;2.20;1.00;;;;;;;-0.41;81.58;99428.35;102119;1317;74182;-23
2021/12/18 02:27:12;;;;;;;1.00;0.80;;;;;;;-0.38;81.39;99429.47;102334;1318;76031;-23
2021/12/18 02:29:41;;;;;;;2.30;1.10;;;;;;;-0.00;80.52;99429.50;102296;1319;74416;-23
2021/12/18 02:34:17;;;;;;;1.60;0.90;;;;;;;0.14;79.39;99424.94;98866;1351;600316;-24
2021/12/18 02:36:48;;;;;;;1.30;0.90;;;;;;;0.06;79.59;99426.55;101282;1326;61160;-24
2021/12/18 02:39:22;;;;;;;3.90;1.50;;;;;;;0.01;80.04;99433.89;101292;1325;61163;-24
2021/12/18 02:42:08;;;;;;;1.90;0.80;;;;;;;-0.25;79.89;99430.77;101115;1325;74073;-24
2021/12/18 02:44:39;;;;;;;1.80;1.20;;;;;;;-0.02;79.62;99434.48;101249;1325;75775;-24
2021/12/18 02:47:08;;;;;;;1.40;1.00;;;;;;;0.25;78.52;99438.77;100801;1330;226265;-24
2021/12/18 02:49:56;;;;;;;3.50;0.80;;;;;;;0.12;78.43;99445.16;101407;1322;62215;-24
2021/12/18 02:52:29;;;;;;;1.30;0.90;;;;;;;0.07;79.27;99443.77;101195;1326;61335;-24
2021/12/18 02:54:57;;;;;;;5.90;0.90;;;;;;;-0.12;79.14;99445.39;101287;1322;73172;-24
2021/12/18 02:57:26;;;;;;;2.00;0.80;;;;;;;-0.34;79.65;99444.52;101402;1322;76085;-24
2021/12/18 02:59:56;;;;;;;0.70;0.60;;;;;;;-0.17;79.18;99444.52;101366;1325;74318;-24
2021/12/18 03:02:26;;;;;;;3.70;1.00;;;;;;;0.26;77.53;99446.77;101410;1322;61894;-24
2021/12/18 03:04:59;;;;;;;2.30;0.70;;;;;;;0.32;76.90;99443.84;101309;1322;61906;-24
2021/12/18 03:07:30;;;;;;;1.40;1.00;;;;;;;0.09;77.29;99450.20;101302;1322;74899;-24
2021/12/18 03:25:45;;;;;;;0.80;0.50;;;;;;;-0.15;77.46;99461.34;101372;1322;71964;-24
2021/12/18 03:28:14;;;;;;;1.60;0.50;;;;;;;-0.33;78.49;99463.23;101266;1322;61187;-23
2021/12/18 03:30:42;;;;;;;1.50;0.70;;;;;;;-0.36;78.84;99467.45;102116;1316;61857;-23
2021/12/18 03:33:11;;;;;;;2.60;1.20;;;;;;;-0.05;77.90;99470.27;102097;1313;73328;-24
2021/12/18 03:35:39;;;;;;;1.50;1.10;;;;;;;0.19;76.76;99469.20;102053;1313;76081;-24
2021/12/18 03:38:10;;;;;;;1.20;0.70;;;;;;;0.17;76.75;99469.22;102050;1312;74281;-23
2021/12/18 03:40:38;;;;;;;1.90;1.00;;;;;;;-0.09;77.53;99467.15;102120;1313;61186;-23
2021/12/18 03:43:07;;;;;;;2.10;1.00;;;;;;;-0.17;77.93;99466.04;102145;1316;61875;-23
2021/12/18 03:45:35;;;;;;;2.00;1.20;;;;;;;-0.20;78.57;99471.57;102118;1313;74828;-23
2021/12/18 03:48:03;;;;;;;1.50;1.00;;;;;;;-0.35;78.86;99468.44;102276;1313;76120;-23
2021/12/18 03:50:32;;;;;;;1.30;0.80;;;;;;;-0.06;78.26;99472.35;102304;1313;72252;-24
2021/12/18 03:53:00;;;;;;;1.30;0.60;;;;;;;0.28;77.11;99469.40;102331;1312;61126;-24
2021/12/18 03:55:30;;;;;;;0.80;0.60;;;;;;;0.34;76.30;99468.86;102234;1313;61349;-23
2021/12/18 03:57:59;;;;;;;1.70;1.00;;;;;;;0.14;77.00;99471.88;102247;1312;73953;-24
2021/12/18 04:00:27;;;;;;;0.70;0.40;;;;;;;-0.10;78.24;99478.95;102047;1313;75106;-23
2021/12/18 04:02:56;;;;;;;1.90;0.80;;;;;;;-0.23;79.36;99481.73;102139;1313;74611;-23
2021/12/18 04:05:24;;;;;;;1.70;0.80;;;;;;;-0.29;79.13;99479.86;102137;1312;61091;-23
2021/12/18 04:08:08;;;;;;;2.30;0.90;;;;;;;0.10;76.07;99471.48;102238;1313;61101;-23
2021/12/18 04:10:37;;;;;;;2.40;1.20;;;;;;;0.10;74.99;99471.33;102335;1312;74878;-23
2021/12/18 04:13:06;;;;;;;2.50;1.00;;;;;;;-0.11;75.98;99477.95;102061;1315;75911;-23
2021/12/18 04:15:35;;;;;;;1.10;0.50;;;;;;;-0.19;76.83;99486.72;102306;1312;74298;-24
2021/12/18 04:18:04;;;;;;;0.80;0.60;;;;;;;-0.35;76.92;99484.31;102258;1313;61100;-23
2021/12/18 04:20:33;;;;;;;1.30;0.80;;;;;;;-0.49;76.00;99489.65;102338;1313;62115;-23
2021/12/18 04:23:01;;;;;;;1.70;0.80;;;;;;;-0.55;76.50;99494.26;102303;1312;73055;-24
2021/12/18 04:25:30;;;;;;;0.60;0.60;;;;;;;-0.01;76.09;99496.59;102286;1313;74324;-23
2021/12/18 04:27:58;;;;;;;1.90;0.70;;;;;;;-0.04;74.00;99493.11;102233;1316;74204;-24
2021/12/18 04:30:26;;;;;;;2.90;1.30;;;;;;;-0.13;72.74;99489.79;102254;1313;61164;-24
2021/12/18 04:32:57;;;;;;;1.40;0.80;;;;;;;-0.36;72.15;99488.77;102318;1316;62808;-23
2021/12/18 04:35:27;;;;;;;0.90;0.80;;;;;;;-0.45;72.39;99497.40;102274;1314;73924;-24
2021/12/18 04:37:55;;;;;;;1.80;1.30;;;;;;;-0.48;73.26;99502.95;102218;1313;76800;-23
2021/12/18 04:40:26;;;;;;;4.30;0.90;;;;;;;-0.56;73.63;99506.39;102270;1313;73231;-24
2021/12/18 04:42:55;;;;;;;3.60;2.00;;;;;;;-0.49;74.42;99507.58;102292;1313;61267;-24
2021/12/18 04:45:24;;;;;;;0.60;0.50;;;;;;;-0.19;75.54;99505.84;102295;1313;61189;-24
2021/12/18 04:47:53;;;;;;;0.70;0.70;;;;;;;-0.44;78.47;99505.71;102329;1313;74797;-23
2021/12/18 04:50:22;;;;;;;1.10;0.90;;;;;;;-0.51;79.18;99505.91;102296;1315;76445;-23
2021/12/18 04:52:50;;;;;;;2.10;1.10;;;;;;;-0.67;79.20;99508.59;102284;1313;73433;-23
2021/12/18 04:55:20;;;;;;;0.80;0.70;;;;;;;-0.74;79.49;99512.17;102248;1313;62675;-23
2021/12/18 04:57:51;;;;;;;0.70;0.60;;;;;;;-0.38;77.93;99508.80;102215;1314;61218;-23
2021/12/18 05:00:20;;;;;;;2.20;1.10;;;;;;;-0.28;75.71;99514.63;102297;1313;74976;-23
2021/12/18 05:02:51;;;;;;;1.30;0.90;;;;;;;-0.39;75.49;99516.66;102234;1312;75370;-23
2021/12/18 05:05:20;;;;;;;2.40;1.20;;;;;;;-0.61;74.59;99526.16;102283;1312;72916;-24
2021/12/18 05:07:49;;;;;;;2.80;1.00;;;;;;;-0.70;73.54;99525.38;102202;1312;61229;-24
2021/12/18 05:10:17;;;;;;;1.40;0.90;;;;;;;-0.87;72.34;99525.80;102062;1312;61214;-23
2021/12/18 05:12:47;;;;;;;0.90;0.80;;;;;;;-0.90;73.38;99530.01;102005;1314;74941;-23
2021/12/18 05:15:15;;;;;;;1.50;1.00;;;;;;;-1.01;73.53;99525.17;102122;1313;75725;-23
2021/12/18 05:17:44;;;;;;;2.90;1.50;;;;;;;-0.59;72.97;99529.66;102160;1313;73467;-25
2021/12/18 05:20:13;;;;;;;4.20;1.70;;;;;;;-0.42;72.38;99535.70;102108;1313;61917;-23
2021/12/18 05:22:41;;;;;;;0.70;0.60;;;;;;;-0.51;72.34;99532.85;102202;1316;61143;-23
2021/12/18 05:25:10;;;;;;;0.90;0.70;;;;;;;-0.73;73.15;99531.77;102157;1313;74675;-23
2021/12/18 05:27:39;;;;;;;1.00;0.80;;;;;;;-0.78;74.29;99536.50;102202;1312;74837;-23
2021/12/18 05:30:08;;;;;;;4.90;1.00;;;;;;;-0.80;74.59;99532.98;102267;1313;74624;-23
2021/12/18 05:32:37;;;;;;;0.90;0.70;;;;;;;-0.81;74.50;99526.50;102176;1314;63014;-23
2021/12/18 05:35:06;;;;;;;2.20;1.40;;;;;;;-0.38;73.06;99527.05;102087;1313;62286;-23
2021/12/18 05:37:52;;;;;;;1.20;0.80;;;;;;;-0.32;72.77;99529.94;102188;1314;75034;-23
2021/12/18 05:40:24;;;;;;;4.10;2.00;;;;;;;-0.42;73.15;99538.59;102155;1313;74486;-23
2021/12/18 05:42:52;;;;;;;1.20;0.90;;;;;;;-0.58;74.18;99542.94;102180;1315;74792;-24
2021/12/18 05:45:21;;;;;;;0.50;0.50;;;;;;;-0.80;75.66;99541.86;102324;1316;61419;-24
2021/12/18 05:47:50;;;;;;;2.90;1.40;;;;;;;-0.84;75.99;99551.81;102288;1312;61167;-23
2021/12/18 05:50:19;;;;;;;1.30;1.10;;;;;;;-0.82;76.39;99552.64;102329;1312;75838;-25
2021/12/18 05:52:48;;;;;;;1.70;0.90;;;;;;;-0.34;75.36;99562.93;102311;1313;73295;-25
2021/12/18 05:55:20;;;;;;;2.80;1.00;;;;;;;-0.32;75.57;99568.84;102280;1314;74302;-25
2021/12/18 05:57:49;;;;;;;0.90;0.70;;;;;;;-0.41;76.74;99571.98;102307;1315;61335;-26
2021/12/18 06:00:18;;;;;;;2.60;0.80;;;;;;;-0.60;77.88;99578.31;102266;1313;61230;-24
2021/12/18 06:02:47;;;;;;;1.30;0.80;;;;;;;-0.81;79.40;99581.60;101839;1316;74637;-24
2021/12/18 06:05:15;;;;;;;1.70;1.10;;;;;;;-0.96;80.45;99581.46;102227;1311;75177;-24
2021/12/18 06:07:57;;;;;;;1.60;0.70;;;;;;;-0.59;80.15;99586.63;102147;1312;74434;-25
2021/12/18 06:10:33;;;;;;;1.90;1.50;;;;;;;-0.52;79.78;99587.83;102173;1312;61131;-24
2021/12/18 06:13:02;;;;;;;1.80;1.20;;;;;;;-0.75;80.89;99590.80;101978;1312;61199;-22
2021/12/18 06:15:31;;;;;;;2.30;1.40;;;;;;;-0.97;82.01;99591.90;102179;1313;74747;-23
2021/12/18 06:17:59;;;;;;;2.40;1.30;;;;;;;-0.99;82.42;99593.99;102040;1313;76128;-23
2021/12/18 06:20:28;;;;;;;3.20;1.80;;;;;;;-0.71;81.53;99592.25;102176;1312;73214;-23
2021/12/18 06:22:57;;;;;;;2.10;1.10;;;;;;;-0.33;80.34;99591.73;102120;1313;61144;-23
2021/12/18 06:25:26;;;;;;;0.80;0.80;;;;;;;-0.24;80.17;99588.08;102207;1313;61139;-23
2021/12/18 06:27:54;;;;;;;1.20;0.80;;;;;;;-0.33;81.03;99587.80;102099;1314;74840;-23
2021/12/18 06:30:22;;;;;;;4.10;2.20;;;;;;;-0.80;82.80;99587.36;102064;1312;74885;-23
2021/12/18 06:32:51;;;;;;;1.80;1.20;;;;;;;-1.05;84.53;99587.66;102170;1312;74625;-23
2021/12/18 06:35:19;;;;;;;1.80;1.20;;;;;;;-0.76;83.70;99596.12;102255;1312;61389;-23
2021/12/18 06:37:50;;;;;;;1.50;1.30;;;;;;;-0.55;82.63;99603.24;102344;1317;61140;-23
2021/12/18 06:40:21;;;;;;;1.60;1.10;;;;;;;-0.65;83.30;99608.46;102283;1313;74861;-23
2021/12/18 06:42:49;;;;;;;0.50;0.50;;;;;;;-1.01;84.32;99607.49;102317;1312;76109;-23
2021/12/18 06:45:20;;;;;;;1.40;0.90;;;;;;;-1.05;84.11;99608.09;102244;1311;74544;-23
2021/12/18 06:47:48;;;;;;;0.90;0.80;;;;;;;-0.83;83.64;99611.81;102264;1317;61733;-23
2021/12/18 06:50:16;;;;;;;1.30;0.60;;;;;;;-0.32;81.40;99611.84;102257;1313;61113;-23
2021/12/18 06:52:46;;;;;;;2.90;0.60;;;;;;;-0.31;80.44;99612.66;102257;1312;74856;-23
2021/12/18 06:55:15;;;;;;;1.50;1.20;;;;;;;-0.47;80.50;99612.08;102308;1313;76229;-23
2021/12/18 06:57:44;;;;;;;2.10;1.70;;;;;;;-0.46;80.33;99615.11;102264;1316;74433;-24
2021/12/18 07:00:13;;;;;;;2.80;1.70;;;;;;;-0.61;80.64;99612.28;102209;1314;61346;-23
2021/12/18 07:02:43;;;;;;;2.30;1.70;;;;;;;-0.68;81.15;99613.14;101842;1315;61854;-23
2021/12/18 07:05:12;;;;;;;1.70;1.20;;;;;;;-0.21;78.78;99616.83;102317;1313;75730;-23
2021/12/18 07:07:40;;;;;;;4.20;1.90;;;;;;;-0.14;77.94;99619.88;102253;1312;76123;-23
2021/12/18 07:10:10;;;;;;;1.50;1.40;;;;;;;-0.19;77.55;99622.40;102191;1313;74575;-23
2021/12/18 07:12:38;;;;;;;2.90;1.70;;;;;;;-0.45;77.82;99622.27;102008;1313;61479;-23
2021/12/18 07:15:08;;;;;;;2.00;1.00;;;;;;;-0.64;78.37;99630.26;102128;1312;61826;-23
2021/12/18 07:17:38;;;;;;;5.20;2.40;;;;;;;-0.68;78.08;99620.98;101930;1319;74393;-23
2021/12/18 07:20:07;;;;;;;5.70;1.60;;;;;;;-0.56;78.01;99619.64;102261;1316;76124;-23
2021/12/18 07:22:36;;;;;;;4.00;2.00;;;;;;;-0.04;75.77;99625.23;102173;1315;74419;-23
2021/12/18 07:25:05;;;;;;;4.00;1.90;;;;;;;-0.03;74.76;99623.33;102216;1318;61151;-23
2021/12/18 07:27:33;;;;;;;3.30;1.90;;;;;;;-0.12;75.49;99622.02;102208;1319;62793;-23
2021/12/18 07:30:03;;;;;;;1.80;0.90;;;;;;;-0.35;76.02;99621.14;102228;1312;75620;-23
2021/12/18 07:32:33;;;;;;;1.10;0.90;;;;;;;-0.57;76.78;99625.31;101826;1316;76181;-23
2021/12/18 07:35:01;;;;;;;1.30;0.90;;;;;;;-0.88;78.19;99626.79;102067;1313;74410;-23
2021/12/18 07:37:29;;;;;;;1.50;1.00;;;;;;;-0.66;78.19;99625.20;102074;1313;61431;-23
2021/12/18 07:39:58;;;;;;;0.80;0.70;;;;;;;-0.37;76.25;99621.55;102095;1313;61066;-23
2021/12/18 07:42:26;;;;;;;0.50;0.50;;;;;;;-0.36;76.04;99620.83;102099;1313;74552;-23
2021/12/18 07:44:57;;;;;;;0.60;0.50;;;;;;;-0.43;76.32;99629.38;102176;1311;74045;-23
2021/12/18 07:47:26;;;;;;;0.40;0.40;;;;;;;-0.45;76.49;99631.29;102158;1316;74192;-23
2021/12/18 07:49:54;;;;;;;0.80;0.60;;;;;;;-0.53;77.28;99634.08;101894;1313;61106;-23
2021/12/18 07:52:22;;;;;;;0.80;0.60;;;;;;;-0.75;77.89;99639.73;102079;1313;61913;-23
2021/12/18 07:54:51;;;;;;;1.00;0.40;;;;;;;-0.75;77.81;99634.96;102229;1313;73581;-23
2021/12/18 07:57:19;;;;;;;0.60;0.50;;;;;;;-0.26;75.86;99636.08;102165;1313;72994;-23
2021/12/18 07:59:48;;;;;;;0.60;0.50;;;;;;;-0.29;75.81;99646.73;102259;1313;73438;-23
2021/12/18 08:02:16;;;;;;;0.60;0.60;;;;;;;-0.49;75.51;99639.95;102161;1316;61062;-23
2021/12/18 08:04:44;;;;;;;0.80;0.60;;;;;;;-0.75;76.52;99645.55;102126;1313;62089;-23
2021/12/18 08:07:13;;;;;;;1.50;0.90;;;;;;;-0.85;77.04;99649.54;102137;1313;75566;-23
2021/12/18 08:09:41;;;;;;;1.10;0.90;;;;;;;-0.83;75.79;99646.42;102113;1313;74895;-23
2021/12/18 08:12:10;;;;;;;1.40;0.90;;;;;;;-0.77;75.54;99652.92;102208;1312;74584;-22
2021/12/18 08:14:39;;;;;;;1.90;1.00;;;;;;;-0.44;74.78;99655.66;102152;1312;61179;-23
2021/12/18 08:17:08;;;;;;;1.60;1.10;;;;;;;-0.42;74.29;99661.93;102300;1316;61088;-23
2021/12/18 08:19:37;;;;;;;1.20;0.90;;;;;;;-0.73;75.09;99653.35;102245;1312;74225;-24
2021/12/18 08:22:05;;;;;;;1.00;0.80;;;;;;;-0.80;75.18;99656.05;102258;1317;75340;-23
2021/12/18 08:24:33;;;;;;;5.20;1.90;;;;;;;-0.89;75.77;99658.50;102283;1313;74197;-23
2021/12/18 08:27:02;;;;;;;5.90;2.80;;;;;;;-1.00;76.61;99660.14;102243;1313;62839;-23
2021/12/18 08:29:30;;;;;;;4.10;2.20;;;;;;;-0.56;75.64;99657.50;102105;1312;61858;-23
2021/12/18 08:31:58;;;;;;;4.10;2.00;;;;;;;-0.33;74.88;99652.81;102125;1312;74777;-23
2021/12/18 08:34:27;;;;;;;3.80;1.30;;;;;;;-0.37;75.06;99651.39;102065;1313;75928;-23
2021/12/18 08:36:55;;;;;;;0.90;0.50;;;;;;;-0.49;75.70;99650.00;102157;1312;74482;-23
2021/12/18 08:39:28;;;;;;;1.70;0.70;;;;;;;-0.64;76.71;99653.80;102083;1316;61420;-23
2021/12/18 08:41:59;;;;;;;1.80;0.60;;;;;;;-0.72;77.12;99653.83;102242;1317;61858;-24
2021/12/18 08:44:27;;;;;;;0.50;0.50;;;;;;;-0.64;77.25;99643.05;102158;1317;75457;-23
2021/12/18 08:46:55;;;;;;;1.10;0.60;;;;;;;-0.40;75.81;99644.63;102159;1312;73994;-24
2021/12/18 08:49:24;;;;;;;0.60;0.50;;;;;;;-0.34;76.26;99639.88;102033;1313;73497;-24
2021/12/18 08:51:54;;;;;;;0.90;0.60;;;;;;;-0.34;76.19;99638.85;102164;1316;61208;-23
2021/12/18 08:54:22;;;;;;;2.40;0.90;;;;;;;-0.42;76.25;99637.02;101985;1316;61273;-23
2021/12/18 08:57:08;;;;;;;0.50;0.30;;;;;;;-0.69;77.57;99630.56;102233;1312;74584;-24
2021/12/18 08:59:37;;;;;;;0.50;0.40;;;;;;;-0.64;77.30;99627.17;102214;1312;73329;-24
2021/12/18 09:02:07;;;;;;;0.60;0.40;;;;;;;-0.39;76.25;99625.67;102028;1314;74566;-24
2021/12/18 09:04:37;;;;;;;0.50;0.50;;;;;;;-0.02;75.65;99620.58;102094;1313;62237;-24
2021/12/18 09:07:05;;;;;;;0.90;0.50;;;;;;;-0.12;76.18;99619.16;102298;1313;61155;-24
2021/12/18 09:09:38;;;;;;;0.40;0.40;;;;;;;-0.19;76.82;99612.68;102291;1313;74739;-24
2021/12/18 09:12:09;;;;;;;0.90;0.60;;;;;;;-0.35;77.65;99607.98;102304;1313;74599;-24
2021/12/18 09:14:50;;;;;;;0.80;0.50;;;;;;;-0.43;78.34;99605.33;101960;1315;74393;-24
2021/12/18 09:17:18;;;;;;;2.60;0.50;;;;;;;-0.57;78.87;99593.41;102294;1319;61484;-24
2021/12/18 09:19:47;;;;;;;0.50;0.40;;;;;;;-0.31;78.10;99589.45;102171;1316;61119;-24
2021/12/18 09:22:15;;;;;;;0.70;0.50;;;;;;;0.10;76.85;99593.41;102123;1313;75568;-24
2021/12/18 09:24:46;;;;;;;1.00;0.70;;;;;;;-0.08;76.63;99590.02;102125;1312;76153;-24
2021/12/18 09:27:17;;;;;;;0.50;0.30;;;;;;;-0.15;77.17;99584.23;102052;1313;74427;-24
2021/12/18 09:29:46;;;;;;;0.30;0.30;;;;;;;-0.04;76.17;99580.35;102116;1316;61690;-24
2021/12/18 09:32:14;;;;;;;0.70;0.40;;;;;;;-0.31;77.05;99583.34;102161;1316;61106;-24
2021/12/18 09:34:43;;;;;;;2.90;0.60;;;;;;;-0.60;77.63;99578.81;102196;1313;74783;-24
2021/12/18 09:37:13;;;;;;;0.50;0.50;;;;;;;-0.43;76.76;99580.06;102302;1312;76326;-24
2021/12/18 09:39:42;;;;;;;0.70;0.50;;;;;;;-0.10;74.67;99581.73;102276;1312;73148;-24
2021/12/18 09:42:10;;;;;;;1.10;0.60;;;;;;;-0.11;74.64;99580.23;102269;1313;61173;-24
2021/12/18 09:44:38;;;;;;;1.80;0.90;;;;;;;-0.29;75.21;99589.41;102269;1312;61094;-24
2021/12/18 09:47:07;;;;;;;4.60;1.30;;;;;;;-0.36;76.08;99592.67;102264;1316;74775;-24
2021/12/18 09:49:36;;;;;;;0.90;0.50;;;;;;;-0.46;77.64;99592.95;102262;1316;76223;-24
2021/12/18 09:52:04;;;;;;;1.20;0.50;;;;;;;-0.63;79.48;99583.66;102190;1319;71627;-24
2021/12/18 09:54:33;;;;;;;2.40;0.50;;;;;;;-0.73;79.53;99576.10;102179;1313;62886;-24
2021/12/18 09:57:01;;;;;;;0.70;0.60;;;;;;;-0.38;78.04;99575.15;102132;1313;61097;-24
2021/12/18 09:59:30;;;;;;;0.70;0.60;;;;;;;-0.26;77.81;99573.13;102055;1317;75796;-24
2021/12/18 10:01:58;;;;;;;1.40;0.60;;;;;;;-0.27;77.68;99577.58;102110;1316;76046;-24
2021/12/18 10:04:34;;;;;;;0.80;0.50;;;;;;;-0.35;77.94;99576.78;102206;1313;74152;-24
2021/12/18 10:07:22;;;;;;;2.40;0.60;;;;;;;-0.47;78.45;99573.86;102269;1313;61197;-24
2021/12/18 10:09:53;;;;;;;0.50;0.50;;;;;;;-0.84;78.99;99567.67;102190;1313;61114;-24
2021/12/18 10:12:28;;;;;;;0.50;0.40;;;;;;;-0.42;78.17;99560.95;101965;1316;75460;-24
2021/12/18 10:15:04;;;;;;;0.70;0.50;;;;;;;-0.24;76.26;99563.00;102121;1313;72340;-25
2021/12/18 10:17:34;;;;;;;0.80;0.60;;;;;;;-0.22;75.70;99558.33;101979;1312;74516;-24
2021/12/18 10:20:09;;;;;;;0.60;0.40;;;;;;;-0.34;76.85;99558.66;101670;1316;61471;-24
2021/12/18 10:22:54;;;;;;;0.40;0.40;;;;;;;-0.42;76.80;99556.83;102049;1319;61243;-24
2021/12/18 10:25:25;;;;;;;0.50;0.50;;;;;;;-0.48;77.12;99553.43;102151;1313;75762;-24
2021/12/18 10:28:08;;;;;;;0.50;0.50;;;;;;;-0.65;77.18;99547.91;102172;1318;76017;-23
2021/12/18 10:30:50;;;;;;;0.40;0.40;;;;;;;-0.32;75.32;99550.25;102284;1319;74597;-24
2021/12/18 10:33:19;;;;;;;0.60;0.50;;;;;;;0.03;74.41;99544.63;102223;1312;61232;-24
2021/12/18 10:35:53;;;;;;;0.90;0.90;;;;;;;-0.13;74.42;99544.27;102335;1312;61858;-24
2021/12/18 10:38:46;;;;;;;0.60;0.50;;;;;;;-0.58;77.20;99533.59;102288;1315;75600;-24
2021/12/18 10:41:28;;;;;;;0.50;0.40;;;;;;;-0.68;77.76;99535.90;102274;1316;76218;-24
2021/12/18 10:44:10;;;;;;;0.50;0.50;;;;;;;-0.78;77.30;99532.58;102272;1319;74389;-24
2021/12/18 10:46:42;;;;;;;0.20;0.20;;;;;;;-0.69;75.48;99532.83;102020;1316;181268;-25
2021/12/18 10:49:13;;;;;;;3.30;0.40;;;;;;;-0.38;73.51;99530.27;101824;1318;61169;-24
2021/12/18 10:51:45;;;;;;;0.40;0.40;;;;;;;-0.41;74.37;99540.27;102083;1312;74236;-23
2021/12/18 10:54:16;;;;;;;0.70;0.50;;;;;;;-0.57;74.79;99528.79;101990;1319;74953;-24
2021/12/18 10:56:47;;;;;;;0.40;0.40;;;;;;;-0.64;75.69;99540.05;102040;1312;73067;-24
2021/12/18 10:59:27;;;;;;;0.30;0.30;;;;;;;-0.79;76.26;99537.54;101968;1313;61594;-24
2021/12/18 11:01:56;;;;;;;0.40;0.40;;;;;;;-0.95;77.09;99530.66;101989;1318;61096;-24
2021/12/18 11:04:34;;;;;;;1.20;0.50;;;;;;;-0.45;75.75;99541.58;102009;1313;75660;-24
2021/12/18 11:07:27;;;;;;;1.70;0.70;;;;;;;-0.45;75.32;99538.48;101825;1319;74911;-24
2021/12/18 11:15:38;;;;;;;3.60;2.20;;;;;;;-1.04;75.73;99522.70;102304;1313;61189;-24
2021/12/18 11:18:08;;;;;;;0.80;0.60;;;;;;;-0.97;75.86;99521.34;102258;1316;75493;-23
2021/12/18 11:20:37;;;;;;;0.50;0.50;;;;;;;-0.70;75.51;99522.45;102327;1318;74800;-24
2021/12/18 11:23:05;;;;;;;0.90;0.70;;;;;;;-0.34;73.31;99507.98;102244;1317;74321;-24
2021/12/18 11:25:34;;;;;;;0.40;0.40;;;;;;;-0.43;73.47;99508.77;102200;1313;61188;-24
2021/12/18 11:28:02;;;;;;;2.40;0.90;;;;;;;-0.26;73.43;99504.69;102190;1319;61152;-24
2021/12/18 11:30:30;;;;;;;1.50;0.80;;;;;;;-0.58;73.84;99501.01;102124;1319;75595;-23
2021/12/18 11:32:59;;;;;;;2.10;0.60;;;;;;;-0.61;74.58;99497.33;102268;1318;75241;-23
2021/12/18 11:35:27;;;;;;;1.80;0.50;;;;;;;-0.86;74.81;99492.04;102224;1314;73584;-23
2021/12/18 11:37:59;;;;;;;0.90;0.70;;;;;;;-1.01;75.63;99489.73;102180;1312;61934;-23
2021/12/18 11:40:33;;;;;;;0.80;0.80;;;;;;;-0.45;74.47;99489.53;101887;1318;61134;-23
2021/12/18 11:43:05;;;;;;;;;;;;;;;-0.18;72.67;99485.84;101696;1316;76122;-23
2021/12/18 11:45:36;;;;;;;1.20;0.60;;;;;;;-0.31;73.55;99482.14;102012;1319;75936;-23
2021/12/18 11:48:05;;;;;;;2.00;0.60;;;;;;;-0.52;73.90;99484.79;101989;1319;74388;-23
2021/12/18 11:50:34;;;;;;;0.80;0.50;;;;;;;-0.42;74.51;99480.92;102098;1319;61048;-23
2021/12/18 11:53:10;;;;;;;0.30;0.30;;;;;;;-0.47;74.64;99471.35;102000;1319;61253;-23
2021/12/18 11:55:48;;;;;;;0.40;0.40;;;;;;;-0.70;75.38;99470.98;101555;1319;72933;-27
2021/12/18 11:58:22;;;;;;;0.50;0.50;;;;;;;-0.37;74.99;99468.82;102209;1318;76873;-25
2021/12/18 12:01:14;;;;;;;0.40;0.40;;;;;;;0.24;72.41;99469.18;102054;1319;74422;-27
2021/12/18 12:03:53;;;;;;;0.80;0.40;;;;;;;0.08;72.01;99461.34;102111;1313;61862;-23
2021/12/18 12:06:36;;;;;;;0.30;0.30;;;;;;;-0.02;72.68;99464.70;101813;1313;61946;-23
2021/12/18 12:09:37;;;;;;;0.30;0.30;;;;;;;-0.14;73.58;99462.52;102025;1318;74707;-22
2021/12/18 12:12:10;;;;;;;0.70;0.50;;;;;;;-0.54;75.10;99458.06;102296;1319;76253;-27
2021/12/18 12:14:40;;;;;;;0.30;0.30;;;;;;;-0.56;76.28;99451.64;102042;1317;74446;-26
2021/12/18 12:17:15;;;;;;;0.70;0.60;;;;;;;-0.69;77.12;99446.39;102278;1313;63029;-26
2021/12/18 12:19:48;;;;;;;0.70;0.60;;;;;;;-0.42;76.26;99443.89;102277;1319;61153;-25
2021/12/18 12:22:35;;;;;;;0.70;0.60;;;;;;;-0.06;75.36;99438.05;102294;1317;75676;-23
2021/12/18 12:25:11;;;;;;;0.60;0.60;;;;;;;0.06;75.49;99445.67;102181;1313;75157;-23
2021/12/18 12:27:59;;;;;;;1.00;0.70;;;;;;;-0.19;76.77;99447.66;101650;1317;74205;-23
2021/12/18 12:30:36;;;;;;;1.30;0.80;;;;;;;-0.36;77.50;99444.73;102087;1319;61518;-23
2021/12/18 12:33:07;;;;;;;1.70;1.10;;;;;;;-0.53;78.42;99448.99;101969;1312;61280;-23